American Falls, ID (83211)

12:02 PM MDT on October 25, 2014 (GMT -0600)
RAWS RAFT RIVER ID US | Change Station
CLOSE
Current Station
Personal Weather Station
Location: Malta, ID
Elevation: 4331 ft
Nearby Weather Stations
Active Advisory: Special Statement

Elev 4331 ft 42.55 °N, 113.26 °W | Updated 43 minutes ago

Clear
Clear
72 °F
Feels Like 75 °F
N
21
Wind Variable Wind from South
Gusts 31.0 mph

Today
High -- | Low -- °F
--% Chance of Precip.
Yesterday
High -- | Low -- °F
Precip. -- in
7:57 AM 6:33 PM
Waxing Crescent, 4% visible
Pressure 29.91 in
Visibility 10.0 miles
Clouds Clear
Heat Index 75 °F
Dew Point 31 °F
Humidity 22%
Rainfall 0.00 in
Snow Depth Not available.
UV 4 out of 12
Pollen 3.20 out of 12
PM2.5 Good
Flu Activity No Activity
METAR KPIH 251753Z 18024G30KT 10SM CLR 23/M02 A3000 RMK AO2 PK WND 19032/1701 SLP126 T02281022 10228 20006 56007

More Conditions Fewer Conditions

Pressure 29.91 in
Visibility 10.0 miles
Clouds Clear
Heat Index 75 °F
Dew Point 31 °F
Humidity 22%
Rainfall 0.00 in
Snow Depth Not available.
UV 4 out of 12
Pollen 3.20 out of 12
PM2.5 Good
Flu Activity No Activity
METAR KPIH 251753Z 18024G30KT 10SM CLR 23/M02 A3000 RMK AO2 PK WND 19032/1701 SLP126 T02281022 10228 20006 56007

More Conditions Fewer Conditions

10-Day Weather Forecast

Almanac

Astronomy

Oct. 25, 2014 Rise Set
Actual Time 7:57 AM MDT 6:33 PM MDT
Civil Twilight 7:28 AM MDT 7:02 PM MDT
Nautical Twilight 6:55 AM MDT 7:35 PM MDT
Astronomical Twilight 6:22 AM MDT 8:08 PM MDT
Moon 9:41 AM MDT 7:57 PM MDT
Length of Visible Light 11h 34m
Length of Day
10h 36m
Tomorrow will be 2m 40s shorter.
Waxing Crescent, 4% of the Moon is Illuminated
Today
Waxing Crescent
Oct 30
First Quarter
Nov 6
Full
Nov 14
Last Quarter
Nov 22
New

Today's Extremes

State Highs State Lows

Community

WunderPhotos

Upload Photos

1,764,926 photos uploaded!

Nearby

Air Quality

  Air Quality AQ Index Pollutant
Yesterday Good
PM2.5
Current Good
PM2.5
Saturday Good
PM2.5
Sunday Good
PM2.5
Monday Good
PM2.5

Snow Depth

Station Depth Elevation
Wildhorse Divide 1 in 6490 ft
Oxford Spring 0 in 6740 ft
Sheep Mountain 0 in 6570 ft
Emigrant Summit 1 in 7390 ft
Swede Peak 1 in 7640 ft

Earthquake Activity

City Distance Mag. Time & Date
No recent earthquake activity has been reported nearby.
Minimum magnitude displayed is 2.5.

Coastal Water Temperatures

Place Temperature
No Stations Reporting

Nearby Weather Stations